createdAt,value
2018-10-07T00:04:33.642Z,58.3
2018-10-07T00:09:36.094Z,58.1
2018-10-07T00:14:38.528Z,58.4
2018-10-07T00:19:40.945Z,58.7
2018-10-07T00:24:43.417Z,58.6
2018-10-07T00:29:45.853Z,59.3
2018-10-07T00:34:48.288Z,60.2
2018-10-07T00:39:50.711Z,60.5
2018-10-07T00:44:53.198Z,60.3
2018-10-07T00:49:55.605Z,60.7
2018-10-07T00:54:58.043Z,61.1
2018-10-07T01:00:00.490Z,61.4
2018-10-07T01:05:02.928Z,61.4
2018-10-07T01:10:05.379Z,61.5
2018-10-07T01:15:07.781Z,61.6
2018-10-07T01:20:10.219Z,62.1
2018-10-07T01:25:12.670Z,62.1
2018-10-07T01:30:15.216Z,62.2
2018-10-07T01:35:17.548Z,62.1
2018-10-07T01:40:19.990Z,61.5
2018-10-07T01:45:22.470Z,61.2
2018-10-07T01:50:25.081Z,61.7
2018-10-07T01:55:27.321Z,61.2
2018-10-07T02:00:29.756Z,61.3
2018-10-07T02:05:32.218Z,61.2
2018-10-07T02:10:34.631Z,61
2018-10-07T02:15:37.087Z,61
2018-10-07T02:20:39.514Z,62
2018-10-07T02:25:41.954Z,62.4
2018-10-07T02:30:44.395Z,62.4
2018-10-07T02:35:46.823Z,62.3
2018-10-07T02:40:49.271Z,62.2
2018-10-07T02:45:51.718Z,61.9
2018-10-07T02:50:54.148Z,61.9
2018-10-07T02:55:56.588Z,61.9
2018-10-07T03:00:59.135Z,61.9
2018-10-07T03:06:01.496Z,61.8
2018-10-07T03:11:03.918Z,61.8
2018-10-07T03:16:06.369Z,61.9
2018-10-07T03:21:08.788Z,62.3
2018-10-07T03:26:11.248Z,62.6
2018-10-07T03:31:13.750Z,62.8
2018-10-07T03:36:16.141Z,63.3
2018-10-07T03:41:18.573Z,63.5
2018-10-07T03:46:21.055Z,63.4
2018-10-07T03:51:23.460Z,63.2
2018-10-07T03:56:25.869Z,63.1
2018-10-07T04:01:28.489Z,63
2018-10-07T04:06:30.779Z,62.9
2018-10-07T04:11:33.312Z,63
2018-10-07T04:16:35.868Z,63.1
2018-10-07T04:21:38.185Z,63.3
2018-10-07T04:26:40.574Z,63.4
2018-10-07T04:36:45.504Z,63.4
2018-10-07T04:41:47.834Z,63.6
2018-10-07T04:46:50.314Z,64.2
2018-10-07T04:51:52.725Z,64.4
2018-10-07T04:56:55.171Z,64.4
2018-10-07T05:01:57.596Z,64.4
2018-10-07T05:07:00.077Z,64.3
2018-10-07T05:12:02.600Z,64.6
2018-10-07T05:17:04.912Z,64.4
2018-10-07T05:22:07.383Z,64.7
2018-10-07T05:27:09.800Z,65.4
2018-10-07T05:32:12.259Z,65.5
2018-10-07T05:37:14.722Z,65.8
2018-10-07T05:42:17.139Z,65.9
2018-10-07T05:47:19.569Z,66.2
2018-10-07T05:52:21.995Z,66.6
2018-10-07T05:57:24.476Z,66.6
2018-10-07T06:02:26.912Z,66.8
2018-10-07T06:07:29.339Z,66.9
2018-10-07T06:12:31.776Z,67.2
2018-10-07T06:17:34.292Z,67.2
2018-10-07T06:22:36.648Z,67.2
2018-10-07T06:27:39.106Z,67.3
2018-10-07T06:32:41.568Z,67.3
2018-10-07T06:37:43.956Z,67.3
2018-10-07T06:42:46.417Z,67.3
2018-10-07T06:47:48.843Z,67.5
2018-10-07T06:52:51.295Z,67.5
2018-10-07T06:57:53.792Z,67.7
2018-10-07T07:02:56.170Z,68.1
2018-10-07T07:07:58.613Z,71.7
2018-10-07T07:13:01.099Z,74.2
2018-10-07T07:18:03.566Z,74.7
2018-10-07T07:23:05.952Z,75.7
2018-10-07T07:28:08.369Z,76.5
2018-10-07T07:33:10.845Z,76.4
2018-10-07T07:38:13.248Z,76.5
2018-10-07T07:43:15.684Z,76.4
2018-10-07T07:48:18.137Z,76.1
2018-10-07T07:53:20.575Z,76.2
2018-10-07T07:58:23.006Z,75.6
2018-10-07T08:03:25.478Z,75.1
2018-10-07T08:08:27.893Z,74.1
2018-10-07T08:13:30.332Z,73
2018-10-07T08:18:32.829Z,72.8
2018-10-07T08:23:35.302Z,72.8
2018-10-07T08:28:37.671Z,72.6
2018-10-07T08:33:40.079Z,72.7
2018-10-07T08:38:42.557Z,72.9
2018-10-07T08:43:44.969Z,72.4
2018-10-07T08:48:47.415Z,72.2
2018-10-07T08:53:49.854Z,71.8
2018-10-07T08:58:52.299Z,71.8
2018-10-07T09:03:54.746Z,70.7
2018-10-07T09:08:57.301Z,70.7
2018-10-07T09:13:59.611Z,70.6
2018-10-07T09:19:02.050Z,70.7
2018-10-07T09:24:04.491Z,71.1
2018-10-07T09:29:06.926Z,71.1
2018-10-07T09:34:09.408Z,71.6
2018-10-07T09:39:11.885Z,71.9
2018-10-07T09:44:14.257Z,72.1
2018-10-07T09:49:16.711Z,72.7
2018-10-07T09:54:19.129Z,73.1
2018-10-07T09:59:21.580Z,72.7
2018-10-07T10:04:24.252Z,72.6
2018-10-07T10:09:26.449Z,72.9
2018-10-07T10:14:28.904Z,73.2
2018-10-07T10:19:31.391Z,74.1
2018-10-07T10:24:33.778Z,74.5
2018-10-07T10:29:36.231Z,74.6
2018-10-07T10:34:38.662Z,74.6
2018-10-07T10:39:41.186Z,74.9
2018-10-07T10:44:43.538Z,75.3
2018-10-07T10:49:45.972Z,75.6
2018-10-07T10:54:48.420Z,75.9
2018-10-07T10:59:50.861Z,76
2018-10-07T11:04:53.836Z,75.9
2018-10-07T11:09:55.797Z,75.8
2018-10-07T11:14:58.179Z,75.6
2018-10-07T11:20:00.622Z,75.7
2018-10-07T11:25:03.084Z,76.1
2018-10-07T11:30:05.597Z,76
2018-10-07T11:35:07.965Z,76.4
2018-10-07T11:40:10.438Z,76.6
2018-10-07T11:45:12.821Z,76.8
2018-10-07T11:50:15.293Z,76.5
2018-10-07T11:55:17.699Z,76.4
2018-10-07T12:00:20.172Z,76.3
2018-10-07T12:05:22.600Z,76.3
2018-10-07T12:10:25.033Z,76.1
2018-10-07T12:15:27.480Z,76
2018-10-07T12:20:29.915Z,76.3
2018-10-07T12:25:32.362Z,76.3
2018-10-07T12:30:34.803Z,76.9
2018-10-07T12:35:37.369Z,77.5
2018-10-07T12:40:39.672Z,78.1
2018-10-07T12:45:42.107Z,78
2018-10-07T12:55:47.003Z,78.1
2018-10-07T13:00:49.419Z,78.5
2018-10-07T13:05:51.873Z,78.8
2018-10-07T13:10:54.313Z,79.2
2018-10-07T13:15:56.904Z,79.5
2018-10-07T13:20:59.193Z,79.7
2018-10-07T13:26:01.742Z,80.2
2018-10-07T13:31:04.079Z,80.3
2018-10-07T13:36:06.515Z,80.3
2018-10-07T13:41:08.962Z,80
2018-10-07T13:46:11.401Z,80.4
2018-10-07T13:51:13.841Z,80.4
2018-10-07T13:56:16.285Z,80.1
2018-10-07T14:01:18.711Z,80
2018-10-07T14:06:21.727Z,80
2018-10-07T14:11:23.589Z,80.3
2018-10-07T14:16:26.037Z,80.1
2018-10-07T14:21:28.480Z,80.5
2018-10-07T14:26:30.917Z,80.8
2018-10-07T14:31:33.359Z,80.7
2018-10-07T14:36:35.804Z,80.6
2018-10-07T14:41:38.275Z,80.6
2018-10-07T14:46:40.677Z,80.5
2018-10-07T14:51:43.136Z,80.3
2018-10-07T14:56:45.545Z,79.6
2018-10-07T15:01:47.989Z,79.2
2018-10-07T15:06:50.454Z,79.1
2018-10-07T15:11:52.871Z,78.7
2018-10-07T15:16:55.324Z,78.1
2018-10-07T15:21:57.752Z,77.9
2018-10-07T15:27:00.201Z,77.6
2018-10-07T15:32:02.632Z,77.6
2018-10-07T15:37:05.078Z,77.3
2018-10-07T15:47:09.940Z,77.1
2018-10-07T15:52:12.391Z,76.7
2018-10-07T15:57:14.838Z,76.2
2018-10-07T16:02:17.273Z,75.9
2018-10-07T16:07:19.742Z,75.1
2018-10-07T16:12:22.247Z,74.8
2018-10-07T16:17:24.706Z,74.4
2018-10-07T16:22:27.039Z,74
2018-10-07T16:27:29.475Z,73.8
2018-10-07T16:32:31.910Z,74
2018-10-07T16:37:34.371Z,74.2
2018-10-07T16:42:36.815Z,74.7
2018-10-07T16:47:39.280Z,74.6
2018-10-07T16:52:41.703Z,74.8
2018-10-07T16:57:44.123Z,74.9
2018-10-07T17:02:46.570Z,75.3
2018-10-07T17:07:49.026Z,75.6
2018-10-07T17:12:51.529Z,75.9
2018-10-07T17:17:53.911Z,75.5
2018-10-07T17:22:56.322Z,75.6
2018-10-07T17:27:58.779Z,75.7
2018-10-07T17:33:01.247Z,75.7
2018-10-07T17:38:03.642Z,75.7
2018-10-07T17:43:06.073Z,75.7
2018-10-07T17:48:08.576Z,75.7
2018-10-07T17:53:10.955Z,75.5
2018-10-07T17:58:13.403Z,74.4
2018-10-07T18:03:15.905Z,73.3
2018-10-07T18:08:18.278Z,72.6
2018-10-07T18:13:20.752Z,72.2
2018-10-07T18:18:23.290Z,72
2018-10-07T18:23:25.686Z,70.8
2018-10-07T18:28:28.037Z,70.5
2018-10-07T18:33:30.480Z,69.9
2018-10-07T18:38:32.923Z,69.7
2018-10-07T18:43:35.377Z,69.6
2018-10-07T18:48:37.909Z,69.3
2018-10-07T18:53:40.251Z,69.6
2018-10-07T18:58:42.675Z,69.3
2018-10-07T19:03:45.122Z,69.1
2018-10-07T19:08:47.572Z,68.9
2018-10-07T19:13:50.003Z,68.7
2018-10-07T19:18:52.459Z,68.7
2018-10-07T19:23:54.934Z,68.5
2018-10-07T19:28:57.324Z,68.4
2018-10-07T19:33:59.787Z,68.1
2018-10-07T19:39:02.213Z,67.9
2018-10-07T19:44:04.642Z,67.8
2018-10-07T19:49:07.078Z,67.2
2018-10-07T19:54:09.568Z,66.8
2018-10-07T19:59:11.963Z,67.9
2018-10-07T20:04:14.427Z,68.1
2018-10-07T20:09:16.865Z,67.8
2018-10-07T20:14:19.307Z,67.5
2018-10-07T20:19:21.848Z,67.6
2018-10-07T20:24:24.164Z,67.7
2018-10-07T20:29:26.600Z,67.7
2018-10-07T20:34:29.046Z,67.6
2018-10-07T20:39:31.476Z,67.4
2018-10-07T20:44:33.920Z,67.3
2018-10-07T20:49:36.363Z,67.2
2018-10-07T20:54:38.818Z,67.2
2018-10-07T20:59:41.247Z,67.1
2018-10-07T21:04:43.676Z,67.1
2018-10-07T21:09:46.119Z,67
2018-10-07T21:14:48.554Z,66.9
2018-10-07T21:19:51.008Z,66.7
2018-10-07T21:24:53.446Z,66.6
2018-10-07T21:29:55.893Z,66.6
2018-10-07T21:34:58.386Z,66.6
2018-10-07T21:40:00.782Z,66.6
2018-10-07T21:45:03.210Z,66.5
2018-10-07T21:50:05.653Z,66.5
2018-10-07T21:55:08.155Z,66.4
2018-10-07T22:00:10.565Z,66.3
2018-10-07T22:05:12.994Z,66.3
2018-10-07T22:10:15.440Z,66.3
2018-10-07T22:15:17.856Z,66.2
2018-10-07T22:20:20.305Z,66.3
2018-10-07T22:25:22.741Z,66.3
2018-10-07T22:30:25.196Z,66.3
2018-10-07T22:35:27.608Z,66.3
2018-10-07T22:40:30.070Z,66.4
2018-10-07T22:45:32.496Z,66.4
2018-10-07T22:50:34.930Z,66.4
2018-10-07T22:55:37.370Z,66.5
2018-10-07T23:00:39.820Z,66.5
2018-10-07T23:05:42.261Z,66.5
2018-10-07T23:10:44.712Z,66.5
2018-10-07T23:15:47.276Z,66.5
2018-10-07T23:20:49.563Z,66.5
2018-10-07T23:25:52.034Z,66.6
2018-10-07T23:30:54.455Z,66.7
2018-10-07T23:35:56.903Z,66.7
2018-10-07T23:40:59.434Z,66.7
2018-10-07T23:46:01.805Z,66.9
2018-10-07T23:51:04.216Z,66.9
2018-10-07T23:56:06.656Z,66.9
